Willow Bend, West Virginia
Current Conditions -  °F | °C
As of 8:35 AM on Wednesday 26 Nov 2014 (Local Time) from KLWB Reporting Station
Moderate Snow Moderate Snow  
Wind Chill:   Ceiling: 600
Heat Index:   Visibility: 0.5mi
Dew Point:   Wind: 0mph
Humidity: 95%   Direction: NA
Pressure: 30"   Gusts: NA
Location:  37.5611°N, 80.5102°W
Report Text: KLWB 261335Z AUTO 00000KT 1/2SM SN OVC006 01/01 A3000 RMK AO2 P0003 T00120005
Loading
Personal Weather Stations






























Interactive Weather Map New forecast layout! Learn more

10-Day Weather Forecast

Advertisements
Track Severe Weather on mobile